Richmond, VT

3:13 PM EDT on September 04, 2015 (GMT -0400)
APRSWXNET | | Change Station
CLOSE
Current Station
Personal Weather Station
Location: Richmond, VT
Elevation: 1017 ft
Nearby Weather Stations

Elev 1017 ft 44.37 °N, 73.02 °W | Updated 25 minutes ago

Clear
Clear
80 °F
Feels Like 81 °F
N
1
Wind Variable Wind from NNW
Gusts 3.0 mph

Today
High -- | Low -- °F
--% Chance of Precip.
Yesterday
High -- | Low -- °F
Precip. -- in
6:17 AM 7:23 PM
Waning Gibbous, 57% visible
Pressure 30.16 in
Visibility 10.0 miles
Clouds Few 6000 ft
Few 15000 ft
Heat Index 81 °F
Dew Point 63 °F
Humidity 56%
Rainfall in
Snow Depth Not available.
UV 6 out of 12
Pollen 7.70 out of 12
Air Quality Not available.
Flu Activity Not available.
METAR KBTV 041854Z 29006KT 10SM FEW060 FEW150 26/13 A3016 RMK AO2 SLP213 T02610128
Pressure 30.16 in
Visibility 10.0 miles
Clouds Few 6000 ft
Few 15000 ft
Heat Index 81 °F
Dew Point 63 °F
Humidity 56%
Rainfall in
Snow Depth Not available.
UV 6 out of 12
Pollen 7.70 out of 12
Air Quality Not available.
Flu Activity Not available.
METAR KBTV 041854Z 29006KT 10SM FEW060 FEW150 26/13 A3016 RMK AO2 SLP213 T02610128

10-Day Weather Forecast

×

Almanac

Astronomy

Sep. 04, 2015 Rise Set
Actual Time
Civil Twilight
Nautical Twilight
Astronomical Twilight
Moon
Length of Visible Light
Length of Day
Tomorrow will be .
, % of the Moon is Illuminated

Today's Extremes

State Highs State Lows

Community

WunderPhotos

Upload Photos

1,852,271 photos uploaded!

WunderBlogs® & News

Nearby

Air Quality

  Air Quality AQ Index Pollutant
Not available.

Snow Depth

Station Depth Elevation

Earthquake Activity

City Distance Mag. Time & Date
Minimum magnitude displayed is 2.5.

Coastal Water Temperatures

Place Temperature

Stations

Nearby Weather Stations

Station Location Temp. Windchill Dew Point Humidity Wind Precip. Elev Updated Type